Bakerville, South Dakota
Current Conditions -  °F | °C
As of 11:53 AM on Tuesday 21 Oct 2014 (Local Time) from KCUT Reporting Station
Clear Clear  
Wind Chill: 21°   Ceiling: Unl
Heat Index: 21°   Visibility: 10mi
Dew Point:   Wind: 15mph
Humidity: 31%   Direction: 250°WSW
Pressure: 29.93"   Gusts: 24mph
Location:  43.6653°N, 103.766°W
Report Text: KCUT 211753Z AUTO 25013G21KT 10SM CLR 21/03 A2993 RMK AO2 SLP075 T02060028 10206 20111 58011
Loading
Personal Weather Stations






























Interactive Weather Map
Tropical Storm Tracking
New forecast layout! Learn more

10-Day Weather Forecast

Advertisements
Track Severe Weather on mobile